Aleknagik, Alaska
Current Conditions -  °F | °C
As of 7:16 AM on Tuesday 21 Oct 2014 (Local Time) from PADL Reporting Station
Overcast Overcast  
Wind Chill: 19°   Ceiling: 1400
Heat Index: 28°   Visibility: 10mi
Dew Point: 28°   Wind: 10mph
Humidity: 100%   Direction: 360°N
Pressure: 29.25"   Gusts: NA
Location:  59.27°N, 158.62°W
Report Text: PADL 211516Z 36009KT 10SM BKN014 BKN029 OVC036 M02/M02 A2925 RMK AO1
Loading
Personal Weather Stations






























Interactive Weather Map
Tropical Storm Tracking
New forecast layout! Learn more

10-Day Weather Forecast

Advertisements
Track Severe Weather on mobile